sensor_id;sensor_type;location;lat;lon;timestamp;P1;durP1;ratioP1;P2;durP2;ratioP2
75620;SDS011;64574;48.506;-2.750;2022-11-20T00:01:28;3.78;;;1.42;;
75620;SDS011;64574;48.506;-2.750;2022-11-20T00:03:55;4.80;;;1.48;;
75620;SDS011;64574;48.506;-2.750;2022-11-20T00:06:22;4.57;;;1.50;;
75620;SDS011;64574;48.506;-2.750;2022-11-20T00:08:49;4.20;;;1.40;;
75620;SDS011;64574;48.506;-2.750;2022-11-20T00:11:16;4.25;;;1.30;;
75620;SDS011;64574;48.506;-2.750;2022-11-20T00:13:47;3.67;;;1.52;;
75620;SDS011;64574;48.506;-2.750;2022-11-20T00:16:15;4.07;;;1.23;;
75620;SDS011;64574;48.506;-2.750;2022-11-20T00:18:42;3.60;;;1.50;;
75620;SDS011;64574;48.506;-2.750;2022-11-20T00:21:12;5.78;;;1.33;;
75620;SDS011;64574;48.506;-2.750;2022-11-20T00:23:42;5.57;;;1.58;;
75620;SDS011;64574;48.506;-2.750;2022-11-20T00:26:09;4.63;;;1.10;;
75620;SDS011;64574;48.506;-2.750;2022-11-20T00:28:36;6.88;;;1.30;;
75620;SDS011;64574;48.506;-2.750;2022-11-20T00:33:35;4.03;;;1.40;;
75620;SDS011;64574;48.506;-2.750;2022-11-20T00:36:05;4.80;;;1.23;;
75620;SDS011;64574;48.506;-2.750;2022-11-20T00:38:35;4.10;;;1.20;;
75620;SDS011;64574;48.506;-2.750;2022-11-20T00:41:02;3.67;;;1.08;;
75620;SDS011;64574;48.506;-2.750;2022-11-20T00:43:29;4.93;;;1.58;;
75620;SDS011;64574;48.506;-2.750;2022-11-20T00:45:58;5.75;;;1.30;;
75620;SDS011;64574;48.506;-2.750;2022-11-20T00:48:31;3.67;;;1.08;;
75620;SDS011;64574;48.506;-2.750;2022-11-20T00:50:59;4.18;;;1.15;;
75620;SDS011;64574;48.506;-2.750;2022-11-20T00:53:26;4.55;;;1.40;;
75620;SDS011;64574;48.506;-2.750;2022-11-20T00:55:55;3.50;;;1.45;;
75620;SDS011;64574;48.506;-2.750;2022-11-20T00:58:23;4.15;;;1.20;;
75620;SDS011;64574;48.506;-2.750;2022-11-20T01:00:50;3.65;;;1.30;;
75620;SDS011;64574;48.506;-2.750;2022-11-20T01:03:17;6.00;;;1.75;;
75620;SDS011;64574;48.506;-2.750;2022-11-20T01:05:43;4.65;;;1.23;;
75620;SDS011;64574;48.506;-2.750;2022-11-20T01:08:09;4.68;;;1.20;;
75620;SDS011;64574;48.506;-2.750;2022-11-20T01:10:35;3.85;;;1.30;;
75620;SDS011;64574;48.506;-2.750;2022-11-20T01:13:01;3.83;;;1.33;;
75620;SDS011;64574;48.506;-2.750;2022-11-20T01:15:45;5.45;;;1.27;;
75620;SDS011;64574;48.506;-2.750;2022-11-20T01:18:11;3.83;;;1.10;;
75620;SDS011;64574;48.506;-2.750;2022-11-20T01:20:36;4.30;;;1.13;;
75620;SDS011;64574;48.506;-2.750;2022-11-20T01:23:03;2.28;;;0.98;;
75620;SDS011;64574;48.506;-2.750;2022-11-20T01:25:29;2.95;;;1.13;;
75620;SDS011;64574;48.506;-2.750;2022-11-20T01:27:54;3.38;;;1.27;;
75620;SDS011;64574;48.506;-2.750;2022-11-20T01:30:20;3.70;;;1.15;;
75620;SDS011;64574;48.506;-2.750;2022-11-20T01:32:46;5.65;;;1.45;;
75620;SDS011;64574;48.506;-2.750;2022-11-20T01:35:11;3.95;;;1.00;;
75620;SDS011;64574;48.506;-2.750;2022-11-20T01:37:37;5.50;;;1.33;;
75620;SDS011;64574;48.506;-2.750;2022-11-20T01:40:03;3.03;;;1.15;;
75620;SDS011;64574;48.506;-2.750;2022-11-20T01:42:29;4.07;;;1.10;;
75620;SDS011;64574;48.506;-2.750;2022-11-20T01:48:17;4.22;;;0.95;;
75620;SDS011;64574;48.506;-2.750;2022-11-20T01:50:45;4.28;;;1.05;;
75620;SDS011;64574;48.506;-2.750;2022-11-20T01:53:12;4.32;;;1.30;;
75620;SDS011;64574;48.506;-2.750;2022-11-20T01:55:46;1.88;;;0.95;;
75620;SDS011;64574;48.506;-2.750;2022-11-20T01:58:14;2.55;;;0.88;;
75620;SDS011;64574;48.506;-2.750;2022-11-20T02:00:44;3.88;;;0.93;;
75620;SDS011;64574;48.506;-2.750;2022-11-20T02:03:11;3.75;;;1.08;;
75620;SDS011;64574;48.506;-2.750;2022-11-20T02:08:16;2.08;;;1.00;;
75620;SDS011;64574;48.506;-2.750;2022-11-20T02:10:44;4.45;;;0.98;;
75620;SDS011;64574;48.506;-2.750;2022-11-20T02:13:09;3.17;;;0.90;;
75620;SDS011;64574;48.506;-2.750;2022-11-20T02:15:54;1.48;;;0.77;;
75620;SDS011;64574;48.506;-2.750;2022-11-20T02:18:20;5.97;;;1.00;;
75620;SDS011;64574;48.506;-2.750;2022-11-20T02:20:47;4.55;;;1.05;;
75620;SDS011;64574;48.506;-2.750;2022-11-20T02:23:27;5.18;;;1.08;;
75620;SDS011;64574;48.506;-2.750;2022-11-20T02:25:56;4.63;;;1.10;;
75620;SDS011;64574;48.506;-2.750;2022-11-20T02:30:49;3.50;;;0.70;;
75620;SDS011;64574;48.506;-2.750;2022-11-20T02:33:14;3.20;;;0.93;;
75620;SDS011;64574;48.506;-2.750;2022-11-20T02:35:44;3.35;;;1.20;;
75620;SDS011;64574;48.506;-2.750;2022-11-20T02:38:11;3.72;;;0.80;;
75620;SDS011;64574;48.506;-2.750;2022-11-20T02:40:39;2.45;;;0.77;;
75620;SDS011;64574;48.506;-2.750;2022-11-20T02:43:05;3.67;;;1.02;;
75620;SDS011;64574;48.506;-2.750;2022-11-20T02:45:31;4.03;;;1.00;;
75620;SDS011;64574;48.506;-2.750;2022-11-20T02:47:56;2.17;;;0.55;;
75620;SDS011;64574;48.506;-2.750;2022-11-20T02:50:22;2.80;;;0.73;;
75620;SDS011;64574;48.506;-2.750;2022-11-20T02:52:48;2.10;;;0.70;;
75620;SDS011;64574;48.506;-2.750;2022-11-20T02:55:13;2.83;;;0.60;;
75620;SDS011;64574;48.506;-2.750;2022-11-20T02:57:39;1.10;;;0.50;;
75620;SDS011;64574;48.506;-2.750;2022-11-20T03:00:05;2.97;;;1.10;;
75620;SDS011;64574;48.506;-2.750;2022-11-20T03:02:31;1.40;;;0.60;;
75620;SDS011;64574;48.506;-2.750;2022-11-20T03:04:57;0.80;;;0.40;;
75620;SDS011;64574;48.506;-2.750;2022-11-20T03:07:23;1.30;;;0.40;;
75620;SDS011;64574;48.506;-2.750;2022-11-20T03:09:49;0.93;;;0.50;;
75620;SDS011;64574;48.506;-2.750;2022-11-20T03:12:15;1.38;;;0.43;;
75620;SDS011;64574;48.506;-2.750;2022-11-20T03:14:40;0.90;;;0.40;;
75620;SDS011;64574;48.506;-2.750;2022-11-20T03:17:06;0.43;;;0.25;;
75620;SDS011;64574;48.506;-2.750;2022-11-20T03:19:32;1.40;;;0.40;;
75620;SDS011;64574;48.506;-2.750;2022-11-20T03:21:57;1.13;;;0.30;;
75620;SDS011;64574;48.506;-2.750;2022-11-20T03:24:23;1.60;;;0.35;;
75620;SDS011;64574;48.506;-2.750;2022-11-20T03:26:48;1.13;;;0.22;;
75620;SDS011;64574;48.506;-2.750;2022-11-20T03:29:14;2.13;;;0.30;;
75620;SDS011;64574;48.506;-2.750;2022-11-20T03:31:40;0.57;;;0.30;;
75620;SDS011;64574;48.506;-2.750;2022-11-20T03:34:07;0.22;;;0.13;;
75620;SDS011;64574;48.506;-2.750;2022-11-20T03:36:33;0.38;;;0.30;;
75620;SDS011;64574;48.506;-2.750;2022-11-20T03:38:59;0.47;;;0.20;;
75620;SDS011;64574;48.506;-2.750;2022-11-20T03:41:26;0.20;;;0.20;;
75620;SDS011;64574;48.506;-2.750;2022-11-20T03:43:55;0.32;;;0.20;;
75620;SDS011;64574;48.506;-2.750;2022-11-20T03:46:25;0.50;;;0.30;;
75620;SDS011;64574;48.506;-2.750;2022-11-20T03:54:12;0.17;;;0.15;;
75620;SDS011;64574;48.506;-2.750;2022-11-20T03:56:38;0.40;;;0.20;;
75620;SDS011;64574;48.506;-2.750;2022-11-20T03:59:04;0.10;;;0.10;;
75620;SDS011;64574;48.506;-2.750;2022-11-20T04:01:34;0.47;;;0.20;;
75620;SDS011;64574;48.506;-2.750;2022-11-20T04:04:01;0.20;;;0.20;;
75620;SDS011;64574;48.506;-2.750;2022-11-20T04:06:28;0.50;;;0.20;;
75620;SDS011;64574;48.506;-2.750;2022-11-20T04:08:58;1.88;;;0.40;;
75620;SDS011;64574;48.506;-2.750;2022-11-20T04:11:24;1.70;;;0.40;;
75620;SDS011;64574;48.506;-2.750;2022-11-20T04:13:53;0.80;;;0.30;;
75620;SDS011;64574;48.506;-2.750;2022-11-20T04:16:21;0.65;;;0.22;;
75620;SDS011;64574;48.506;-2.750;2022-11-20T04:18:51;1.65;;;0.30;;
75620;SDS011;64574;48.506;-2.750;2022-11-20T04:21:17;0.70;;;0.20;;
75620;SDS011;64574;48.506;-2.750;2022-11-20T04:23:43;0.55;;;0.28;;
75620;SDS011;64574;48.506;-2.750;2022-11-20T04:26:10;1.63;;;0.30;;
75620;SDS011;64574;48.506;-2.750;2022-11-20T04:28:37;1.02;;;0.15;;
75620;SDS011;64574;48.506;-2.750;2022-11-20T04:31:04;0.10;;;0.00;;
75620;SDS011;64574;48.506;-2.750;2022-11-20T04:33:35;0.10;;;0.10;;
75620;SDS011;64574;48.506;-2.750;2022-11-20T04:36:09;0.65;;;0.15;;
75620;SDS011;64574;48.506;-2.750;2022-11-20T04:38:37;0.20;;;0.20;;
75620;SDS011;64574;48.506;-2.750;2022-11-20T04:41:04;0.65;;;0.20;;
75620;SDS011;64574;48.506;-2.750;2022-11-20T04:43:31;2.10;;;0.47;;
75620;SDS011;64574;48.506;-2.750;2022-11-20T04:45:58;1.20;;;0.30;;
75620;SDS011;64574;48.506;-2.750;2022-11-20T04:48:28;1.38;;;0.60;;
75620;SDS011;64574;48.506;-2.750;2022-11-20T04:50:55;1.75;;;0.22;;
75620;SDS011;64574;48.506;-2.750;2022-11-20T04:53:21;1.55;;;0.20;;
75620;SDS011;64574;48.506;-2.750;2022-11-20T04:55:47;3.90;;;0.40;;
75620;SDS011;64574;48.506;-2.750;2022-11-20T04:58:13;2.45;;;0.22;;
75620;SDS011;64574;48.506;-2.750;2022-11-20T05:00:39;4.53;;;0.73;;
75620;SDS011;64574;48.506;-2.750;2022-11-20T05:03:05;3.45;;;0.40;;
75620;SDS011;64574;48.506;-2.750;2022-11-20T05:05:32;5.18;;;0.47;;
75620;SDS011;64574;48.506;-2.750;2022-11-20T05:10:25;5.63;;;0.60;;
75620;SDS011;64574;48.506;-2.750;2022-11-20T05:12:51;7.75;;;0.95;;
75620;SDS011;64574;48.506;-2.750;2022-11-20T05:15:17;8.70;;;1.27;;
75620;SDS011;64574;48.506;-2.750;2022-11-20T05:17:49;10.13;;;1.20;;
75620;SDS011;64574;48.506;-2.750;2022-11-20T05:20:15;7.85;;;2.00;;
75620;SDS011;64574;48.506;-2.750;2022-11-20T05:22:42;10.35;;;1.30;;
75620;SDS011;64574;48.506;-2.750;2022-11-20T05:25:08;5.25;;;0.90;;
75620;SDS011;64574;48.506;-2.750;2022-11-20T05:27:33;10.25;;;1.23;;
75620;SDS011;64574;48.506;-2.750;2022-11-20T05:29:59;9.25;;;1.08;;
75620;SDS011;64574;48.506;-2.750;2022-11-20T05:32:25;9.23;;;1.33;;
75620;SDS011;64574;48.506;-2.750;2022-11-20T05:34:53;8.68;;;1.08;;
75620;SDS011;64574;48.506;-2.750;2022-11-20T05:37:19;9.25;;;1.20;;
75620;SDS011;64574;48.506;-2.750;2022-11-20T05:39:44;12.27;;;1.10;;
75620;SDS011;64574;48.506;-2.750;2022-11-20T05:42:10;8.93;;;1.45;;
75620;SDS011;64574;48.506;-2.750;2022-11-20T05:44:54;13.25;;;1.83;;
75620;SDS011;64574;48.506;-2.750;2022-11-20T05:47:20;8.52;;;1.13;;
75620;SDS011;64574;48.506;-2.750;2022-11-20T05:49:45;12.73;;;2.25;;
75620;SDS011;64574;48.506;-2.750;2022-11-20T05:52:11;10.90;;;1.50;;
75620;SDS011;64574;48.506;-2.750;2022-11-20T05:54:37;18.95;;;2.40;;
75620;SDS011;64574;48.506;-2.750;2022-11-20T05:57:02;11.48;;;1.58;;
75620;SDS011;64574;48.506;-2.750;2022-11-20T05:59:28;11.07;;;1.40;;
75620;SDS011;64574;48.506;-2.750;2022-11-20T06:01:54;12.88;;;1.35;;
75620;SDS011;64574;48.506;-2.750;2022-11-20T06:04:19;15.73;;;2.58;;
75620;SDS011;64574;48.506;-2.750;2022-11-20T06:06:45;9.85;;;1.40;;
75620;SDS011;64574;48.506;-2.750;2022-11-20T06:09:10;12.68;;;1.40;;
75620;SDS011;64574;48.506;-2.750;2022-11-20T06:11:36;14.75;;;1.83;;
75620;SDS011;64574;48.506;-2.750;2022-11-20T06:14:02;10.13;;;1.85;;
75620;SDS011;64574;48.506;-2.750;2022-11-20T06:16:27;12.75;;;1.38;;
75620;SDS011;64574;48.506;-2.750;2022-11-20T06:18:53;12.80;;;2.53;;
75620;SDS011;64574;48.506;-2.750;2022-11-20T06:21:19;8.02;;;1.38;;
75620;SDS011;64574;48.506;-2.750;2022-11-20T06:23:46;15.45;;;1.77;;
75620;SDS011;64574;48.506;-2.750;2022-11-20T06:26:13;18.17;;;2.88;;
75620;SDS011;64574;48.506;-2.750;2022-11-20T06:28:44;16.38;;;2.17;;
75620;SDS011;64574;48.506;-2.750;2022-11-20T06:31:10;17.25;;;2.38;;
75620;SDS011;64574;48.506;-2.750;2022-11-20T06:33:38;15.32;;;1.80;;
75620;SDS011;64574;48.506;-2.750;2022-11-20T06:36:04;12.50;;;1.90;;
75620;SDS011;64574;48.506;-2.750;2022-11-20T06:38:30;15.70;;;1.85;;
75620;SDS011;64574;48.506;-2.750;2022-11-20T06:40:56;14.65;;;2.30;;
75620;SDS011;64574;48.506;-2.750;2022-11-20T06:43:21;18.33;;;1.73;;
75620;SDS011;64574;48.506;-2.750;2022-11-20T06:45:54;11.40;;;1.65;;
75620;SDS011;64574;48.506;-2.750;2022-11-20T06:48:22;15.48;;;1.73;;
75620;SDS011;64574;48.506;-2.750;2022-11-20T06:50:49;14.10;;;2.00;;
75620;SDS011;64574;48.506;-2.750;2022-11-20T06:53:14;14.63;;;1.80;;
75620;SDS011;64574;48.506;-2.750;2022-11-20T06:55:43;12.80;;;1.92;;
75620;SDS011;64574;48.506;-2.750;2022-11-20T06:58:10;20.33;;;2.95;;
75620;SDS011;64574;48.506;-2.750;2022-11-20T07:00:37;11.77;;;1.95;;
75620;SDS011;64574;48.506;-2.750;2022-11-20T07:03:03;15.13;;;2.10;;
75620;SDS011;64574;48.506;-2.750;2022-11-20T07:05:29;15.88;;;2.45;;
75620;SDS011;64574;48.506;-2.750;2022-11-20T07:07:55;15.05;;;1.45;;
75620;SDS011;64574;48.506;-2.750;2022-11-20T07:10:22;13.63;;;1.70;;
75620;SDS011;64574;48.506;-2.750;2022-11-20T07:12:49;13.32;;;1.90;;
75620;SDS011;64574;48.506;-2.750;2022-11-20T07:15:22;19.05;;;2.47;;
75620;SDS011;64574;48.506;-2.750;2022-11-20T07:17:50;16.48;;;2.65;;
75620;SDS011;64574;48.506;-2.750;2022-11-20T07:20:17;17.63;;;2.50;;
75620;SDS011;64574;48.506;-2.750;2022-11-20T07:22:42;15.48;;;2.20;;
75620;SDS011;64574;48.506;-2.750;2022-11-20T07:25:08;16.80;;;2.03;;
75620;SDS011;64574;48.506;-2.750;2022-11-20T07:27:34;15.52;;;2.50;;
75620;SDS011;64574;48.506;-2.750;2022-11-20T07:30:00;17.63;;;2.70;;
75620;SDS011;64574;48.506;-2.750;2022-11-20T07:32:27;10.68;;;1.83;;
75620;SDS011;64574;48.506;-2.750;2022-11-20T07:34:53;19.00;;;2.70;;
75620;SDS011;64574;48.506;-2.750;2022-11-20T07:37:18;19.88;;;3.25;;
75620;SDS011;64574;48.506;-2.750;2022-11-20T07:39:44;21.58;;;2.85;;
75620;SDS011;64574;48.506;-2.750;2022-11-20T07:42:09;18.98;;;3.70;;
75620;SDS011;64574;48.506;-2.750;2022-11-20T07:44:37;19.40;;;2.78;;
75620;SDS011;64574;48.506;-2.750;2022-11-20T07:47:03;25.80;;;3.05;;
75620;SDS011;64574;48.506;-2.750;2022-11-20T07:49:29;14.75;;;2.70;;
75620;SDS011;64574;48.506;-2.750;2022-11-20T07:51:54;20.35;;;3.00;;
75620;SDS011;64574;48.506;-2.750;2022-11-20T07:54:20;19.02;;;3.22;;
75620;SDS011;64574;48.506;-2.750;2022-11-20T07:56:47;13.50;;;2.60;;
75620;SDS011;64574;48.506;-2.750;2022-11-20T07:59:15;14.95;;;2.65;;
75620;SDS011;64574;48.506;-2.750;2022-11-20T08:01:41;22.92;;;3.05;;
75620;SDS011;64574;48.506;-2.750;2022-11-20T08:04:07;26.83;;;3.72;;
75620;SDS011;64574;48.506;-2.750;2022-11-20T08:06:34;20.50;;;2.80;;
75620;SDS011;64574;48.506;-2.750;2022-11-20T08:09:00;24.80;;;3.38;;
75620;SDS011;64574;48.506;-2.750;2022-11-20T08:11:25;17.90;;;2.58;;
75620;SDS011;64574;48.506;-2.750;2022-11-20T08:14:10;30.80;;;3.58;;
75620;SDS011;64574;48.506;-2.750;2022-11-20T08:16:48;19.20;;;3.53;;
75620;SDS011;64574;48.506;-2.750;2022-11-20T08:19:15;22.67;;;4.03;;
75620;SDS011;64574;48.506;-2.750;2022-11-20T08:21:42;27.13;;;3.65;;
75620;SDS011;64574;48.506;-2.750;2022-11-20T08:24:08;21.48;;;2.83;;
75620;SDS011;64574;48.506;-2.750;2022-11-20T08:26:35;15.55;;;2.38;;
75620;SDS011;64574;48.506;-2.750;2022-11-20T08:29:02;23.35;;;2.72;;
75620;SDS011;64574;48.506;-2.750;2022-11-20T08:31:28;17.55;;;3.22;;
75620;SDS011;64574;48.506;-2.750;2022-11-20T08:33:55;16.17;;;3.03;;
75620;SDS011;64574;48.506;-2.750;2022-11-20T08:36:21;14.38;;;2.60;;
75620;SDS011;64574;48.506;-2.750;2022-11-20T08:38:50;18.80;;;3.03;;
75620;SDS011;64574;48.506;-2.750;2022-11-20T08:41:17;21.35;;;2.63;;
75620;SDS011;64574;48.506;-2.750;2022-11-20T08:43:50;27.08;;;3.35;;
75620;SDS011;64574;48.506;-2.750;2022-11-20T08:46:17;16.25;;;3.35;;
75620;SDS011;64574;48.506;-2.750;2022-11-20T08:48:43;19.15;;;3.40;;
75620;SDS011;64574;48.506;-2.750;2022-11-20T08:51:09;18.02;;;3.53;;
75620;SDS011;64574;48.506;-2.750;2022-11-20T08:53:35;23.25;;;3.95;;
75620;SDS011;64574;48.506;-2.750;2022-11-20T08:56:01;16.35;;;3.17;;
75620;SDS011;64574;48.506;-2.750;2022-11-20T08:58:26;20.00;;;2.95;;
75620;SDS011;64574;48.506;-2.750;2022-11-20T09:00:52;21.02;;;3.38;;
75620;SDS011;64574;48.506;-2.750;2022-11-20T09:03:18;15.25;;;2.80;;
75620;SDS011;64574;48.506;-2.750;2022-11-20T09:05:44;16.30;;;2.47;;
75620;SDS011;64574;48.506;-2.750;2022-11-20T09:08:09;21.27;;;3.17;;
75620;SDS011;64574;48.506;-2.750;2022-11-20T09:10:35;23.05;;;3.88;;
75620;SDS011;64574;48.506;-2.750;2022-11-20T09:13:01;17.08;;;2.72;;
75620;SDS011;64574;48.506;-2.750;2022-11-20T09:15:27;13.30;;;2.42;;
75620;SDS011;64574;48.506;-2.750;2022-11-20T09:17:53;20.90;;;3.05;;
75620;SDS011;64574;48.506;-2.750;2022-11-20T09:20:19;25.20;;;4.03;;
75620;SDS011;64574;48.506;-2.750;2022-11-20T09:22:45;22.77;;;3.45;;
75620;SDS011;64574;48.506;-2.750;2022-11-20T09:25:11;29.55;;;4.00;;
75620;SDS011;64574;48.506;-2.750;2022-11-20T09:27:36;19.23;;;3.40;;
75620;SDS011;64574;48.506;-2.750;2022-11-20T09:30:02;18.15;;;3.10;;
75620;SDS011;64574;48.506;-2.750;2022-11-20T09:32:29;17.63;;;2.88;;
75620;SDS011;64574;48.506;-2.750;2022-11-20T09:34:54;16.40;;;3.05;;
75620;SDS011;64574;48.506;-2.750;2022-11-20T09:37:20;28.38;;;3.00;;
75620;SDS011;64574;48.506;-2.750;2022-11-20T09:39:46;16.90;;;2.85;;
75620;SDS011;64574;48.506;-2.750;2022-11-20T09:42:17;19.60;;;2.75;;
75620;SDS011;64574;48.506;-2.750;2022-11-20T09:47:34;18.30;;;2.60;;
75620;SDS011;64574;48.506;-2.750;2022-11-20T09:50:30;12.65;;;2.30;;
75620;SDS011;64574;48.506;-2.750;2022-11-20T09:55:37;14.00;;;2.40;;
75620;SDS011;64574;48.506;-2.750;2022-11-20T09:58:10;17.27;;;2.75;;
75620;SDS011;64574;48.506;-2.750;2022-11-20T10:01:49;11.93;;;2.03;;
75620;SDS011;64574;48.506;-2.750;2022-11-20T10:06:39;13.13;;;2.15;;
75620;SDS011;64574;48.506;-2.750;2022-11-20T10:14:39;14.45;;;2.30;;
75620;SDS011;64574;48.506;-2.750;2022-11-20T10:17:14;17.27;;;2.63;;
75620;SDS011;64574;48.506;-2.750;2022-11-20T10:19:54;11.98;;;2.03;;
75620;SDS011;64574;48.506;-2.750;2022-11-20T10:25:08;24.83;;;3.90;;
75620;SDS011;64574;48.506;-2.750;2022-11-20T10:30:17;14.95;;;3.10;;
75620;SDS011;64574;48.506;-2.750;2022-11-20T10:32:47;19.05;;;2.88;;
75620;SDS011;64574;48.506;-2.750;2022-11-20T10:38:05;16.88;;;2.80;;
75620;SDS011;64574;48.506;-2.750;2022-11-20T10:40:42;13.35;;;1.95;;
75620;SDS011;64574;48.506;-2.750;2022-11-20T10:45:58;8.48;;;2.13;;
75620;SDS011;64574;48.506;-2.750;2022-11-20T10:48:28;19.67;;;2.50;;
75620;SDS011;64574;48.506;-2.750;2022-11-20T10:53:31;16.77;;;3.10;;
75620;SDS011;64574;48.506;-2.750;2022-11-20T10:56:11;16.70;;;3.05;;
75620;SDS011;64574;48.506;-2.750;2022-11-20T11:01:42;12.43;;;2.50;;
75620;SDS011;64574;48.506;-2.750;2022-11-20T11:04:53;14.82;;;2.30;;
75620;SDS011;64574;48.506;-2.750;2022-11-20T11:06:58;17.60;;;2.70;;
75620;SDS011;64574;48.506;-2.750;2022-11-20T11:09:39;22.52;;;2.75;;
75620;SDS011;64574;48.506;-2.750;2022-11-20T11:12:26;16.13;;;2.35;;
75620;SDS011;64574;48.506;-2.750;2022-11-20T11:14:54;22.95;;;2.80;;
75620;SDS011;64574;48.506;-2.750;2022-11-20T11:17:28;15.40;;;2.80;;
75620;SDS011;64574;48.506;-2.750;2022-11-20T11:20:01;13.50;;;2.40;;
75620;SDS011;64574;48.506;-2.750;2022-11-20T11:22:30;13.48;;;2.13;;
75620;SDS011;64574;48.506;-2.750;2022-11-20T11:24:57;15.93;;;2.30;;
75620;SDS011;64574;48.506;-2.750;2022-11-20T11:27:24;15.98;;;2.50;;
75620;SDS011;64574;48.506;-2.750;2022-11-20T11:29:50;20.23;;;4.57;;
75620;SDS011;64574;48.506;-2.750;2022-11-20T11:32:28;16.40;;;2.78;;
75620;SDS011;64574;48.506;-2.750;2022-11-20T11:35:27;12.82;;;1.75;;
75620;SDS011;64574;48.506;-2.750;2022-11-20T11:37:47;17.83;;;2.67;;
75620;SDS011;64574;48.506;-2.750;2022-11-20T11:40:14;16.60;;;2.30;;
75620;SDS011;64574;48.506;-2.750;2022-11-20T11:42:44;10.35;;;2.05;;
75620;SDS011;64574;48.506;-2.750;2022-11-20T11:45:16;12.13;;;1.88;;
75620;SDS011;64574;48.506;-2.750;2022-11-20T11:52:42;14.40;;;2.08;;
75620;SDS011;64574;48.506;-2.750;2022-11-20T11:55:28;15.90;;;2.67;;
75620;SDS011;64574;48.506;-2.750;2022-11-20T12:00:27;16.85;;;2.25;;
75620;SDS011;64574;48.506;-2.750;2022-11-20T12:05:47;13.43;;;2.03;;
75620;SDS011;64574;48.506;-2.750;2022-11-20T12:08:21;12.65;;;2.47;;
75620;SDS011;64574;48.506;-2.750;2022-11-20T12:11:06;15.80;;;2.35;;
75620;SDS011;64574;48.506;-2.750;2022-11-20T12:13:50;8.60;;;1.65;;
75620;SDS011;64574;48.506;-2.750;2022-11-20T12:16:37;19.73;;;3.38;;
75620;SDS011;64574;48.506;-2.750;2022-11-20T12:19:07;13.23;;;1.88;;
75620;SDS011;64574;48.506;-2.750;2022-11-20T12:54:54;14.43;;;2.40;;
75620;SDS011;64574;48.506;-2.750;2022-11-20T13:00:18;15.27;;;2.47;;
75620;SDS011;64574;48.506;-2.750;2022-11-20T13:05:50;15.30;;;1.85;;
75620;SDS011;64574;48.506;-2.750;2022-11-20T13:08:41;15.05;;;1.95;;
75620;SDS011;64574;48.506;-2.750;2022-11-20T13:19:49;12.48;;;2.00;;
75620;SDS011;64574;48.506;-2.750;2022-11-20T13:22:28;10.38;;;2.53;;
75620;SDS011;64574;48.506;-2.750;2022-11-20T13:25:08;10.27;;;1.90;;
75620;SDS011;64574;48.506;-2.750;2022-11-20T13:27:35;11.75;;;2.65;;
75620;SDS011;64574;48.506;-2.750;2022-11-20T13:30:12;10.32;;;1.70;;
75620;SDS011;64574;48.506;-2.750;2022-11-20T13:32:49;9.00;;;1.80;;
75620;SDS011;64574;48.506;-2.750;2022-11-20T13:38:04;15.25;;;1.80;;
75620;SDS011;64574;48.506;-2.750;2022-11-20T13:40:39;10.48;;;2.75;;
75620;SDS011;64574;48.506;-2.750;2022-11-20T13:43:28;8.98;;;1.80;;
75620;SDS011;64574;48.506;-2.750;2022-11-20T13:45:55;12.10;;;2.30;;
75620;SDS011;64574;48.506;-2.750;2022-11-20T13:48:26;13.77;;;3.13;;
75620;SDS011;64574;48.506;-2.750;2022-11-20T13:59:30;14.18;;;2.78;;
75620;SDS011;64574;48.506;-2.750;2022-11-20T14:02:01;12.15;;;2.33;;
75620;SDS011;64574;48.506;-2.750;2022-11-20T14:04:33;10.38;;;2.25;;
75620;SDS011;64574;48.506;-2.750;2022-11-20T14:07:00;8.20;;;1.40;;
75620;SDS011;64574;48.506;-2.750;2022-11-20T14:09:30;7.30;;;1.52;;
75620;SDS011;64574;48.506;-2.750;2022-11-20T14:11:58;13.70;;;1.90;;
75620;SDS011;64574;48.506;-2.750;2022-11-20T14:14:25;9.80;;;2.13;;
75620;SDS011;64574;48.506;-2.750;2022-11-20T14:16:52;12.90;;;1.70;;
75620;SDS011;64574;48.506;-2.750;2022-11-20T14:19:29;9.02;;;1.48;;
75620;SDS011;64574;48.506;-2.750;2022-11-20T14:24:35;5.82;;;1.40;;
75620;SDS011;64574;48.506;-2.750;2022-11-20T14:27:01;12.68;;;1.45;;
75620;SDS011;64574;48.506;-2.750;2022-11-20T14:29:28;10.85;;;1.70;;
75620;SDS011;64574;48.506;-2.750;2022-11-20T14:32:03;12.52;;;1.67;;
75620;SDS011;64574;48.506;-2.750;2022-11-20T14:34:30;13.35;;;1.52;;
75620;SDS011;64574;48.506;-2.750;2022-11-20T14:36:59;10.80;;;2.22;;
75620;SDS011;64574;48.506;-2.750;2022-11-20T14:39:33;11.90;;;1.67;;
75620;SDS011;64574;48.506;-2.750;2022-11-20T14:42:18;11.93;;;1.73;;
75620;SDS011;64574;48.506;-2.750;2022-11-20T14:44:47;9.82;;;2.03;;
75620;SDS011;64574;48.506;-2.750;2022-11-20T14:47:15;11.13;;;1.88;;
75620;SDS011;64574;48.506;-2.750;2022-11-20T14:49:47;11.15;;;1.67;;
75620;SDS011;64574;48.506;-2.750;2022-11-20T14:52:16;11.57;;;1.60;;
75620;SDS011;64574;48.506;-2.750;2022-11-20T14:54:44;12.10;;;1.70;;
75620;SDS011;64574;48.506;-2.750;2022-11-20T14:57:24;9.40;;;1.48;;
75620;SDS011;64574;48.506;-2.750;2022-11-20T15:00:05;7.63;;;1.60;;
75620;SDS011;64574;48.506;-2.750;2022-11-20T15:02:41;9.73;;;1.80;;
75620;SDS011;64574;48.506;-2.750;2022-11-20T15:05:07;12.68;;;2.00;;
75620;SDS011;64574;48.506;-2.750;2022-11-20T15:07:35;9.00;;;1.45;;
75620;SDS011;64574;48.506;-2.750;2022-11-20T15:10:03;12.43;;;1.55;;
75620;SDS011;64574;48.506;-2.750;2022-11-20T15:12:31;11.82;;;1.60;;
75620;SDS011;64574;48.506;-2.750;2022-11-20T15:15:00;10.55;;;2.08;;
75620;SDS011;64574;48.506;-2.750;2022-11-20T15:17:27;15.45;;;1.95;;
75620;SDS011;64574;48.506;-2.750;2022-11-20T15:19:54;13.63;;;1.67;;
75620;SDS011;64574;48.506;-2.750;2022-11-20T15:22:20;8.77;;;1.52;;
75620;SDS011;64574;48.506;-2.750;2022-11-20T15:24:46;12.85;;;1.40;;
75620;SDS011;64574;48.506;-2.750;2022-11-20T15:27:12;16.65;;;2.08;;
75620;SDS011;64574;48.506;-2.750;2022-11-20T15:29:37;6.57;;;1.98;;
75620;SDS011;64574;48.506;-2.750;2022-11-20T15:32:03;11.77;;;1.92;;
75620;SDS011;64574;48.506;-2.750;2022-11-20T15:34:29;9.88;;;1.98;;
75620;SDS011;64574;48.506;-2.750;2022-11-20T15:36:54;9.43;;;1.60;;
75620;SDS011;64574;48.506;-2.750;2022-11-20T15:39:20;11.07;;;1.75;;
75620;SDS011;64574;48.506;-2.750;2022-11-20T15:41:46;8.70;;;1.73;;
75620;SDS011;64574;48.506;-2.750;2022-11-20T15:44:12;15.65;;;1.98;;
75620;SDS011;64574;48.506;-2.750;2022-11-20T15:46:38;13.13;;;2.13;;
75620;SDS011;64574;48.506;-2.750;2022-11-20T15:49:14;8.25;;;1.33;;
75620;SDS011;64574;48.506;-2.750;2022-11-20T15:51:42;10.25;;;1.80;;
75620;SDS011;64574;48.506;-2.750;2022-11-20T15:54:14;11.45;;;1.67;;
75620;SDS011;64574;48.506;-2.750;2022-11-20T15:56:43;14.50;;;1.65;;
75620;SDS011;64574;48.506;-2.750;2022-11-20T15:59:09;11.30;;;3.30;;
75620;SDS011;64574;48.506;-2.750;2022-11-20T16:01:34;13.98;;;2.97;;
75620;SDS011;64574;48.506;-2.750;2022-11-20T16:04:00;12.05;;;2.47;;
75620;SDS011;64574;48.506;-2.750;2022-11-20T16:06:26;15.25;;;2.53;;
75620;SDS011;64574;48.506;-2.750;2022-11-20T16:08:52;11.48;;;1.98;;
75620;SDS011;64574;48.506;-2.750;2022-11-20T16:11:18;13.88;;;2.78;;
75620;SDS011;64574;48.506;-2.750;2022-11-20T16:13:44;13.98;;;3.63;;
75620;SDS011;64574;48.506;-2.750;2022-11-20T16:16:29;12.77;;;2.42;;
75620;SDS011;64574;48.506;-2.750;2022-11-20T16:18:58;13.15;;;2.53;;
75620;SDS011;64574;48.506;-2.750;2022-11-20T16:21:24;14.07;;;2.70;;
75620;SDS011;64574;48.506;-2.750;2022-11-20T16:23:59;11.20;;;1.83;;
75620;SDS011;64574;48.506;-2.750;2022-11-20T16:26:26;12.95;;;2.65;;
75620;SDS011;64574;48.506;-2.750;2022-11-20T16:28:52;9.07;;;1.85;;
75620;SDS011;64574;48.506;-2.750;2022-11-20T16:31:19;15.30;;;2.30;;
75620;SDS011;64574;48.506;-2.750;2022-11-20T16:33:52;14.35;;;2.20;;
75620;SDS011;64574;48.506;-2.750;2022-11-20T16:36:19;15.23;;;2.22;;